Time;durP1;ratioP1;P1;durP2;ratioP2;P2;SDS_P1;SDS_P2;PMS_P1;PMS_P2;Temp;Humidity;BMP_temperature;BMP_pressure;BME280_temperature;BME280_humidity;BME280_pressure;Samples;Min_cycle;Max_cycle;Signal;HPM_P1;HPM_P2
2022/08/26 00:00:34;;;;;;;10.65;9.52;;;;;;;;;;5080474;28;20246;-74
2022/08/26 00:03:01;;;;;;;13.00;10.32;;;;;;;;;;5048201;28;20230;-72
2022/08/26 00:05:27;;;;;;;12.52;10.15;;;;;;;;;;5078380;28;20219;-73
2022/08/26 00:07:56;;;;;;;12.63;9.70;;;;;;;;;;5051374;28;20657;-73
2022/08/26 00:10:23;;;;;;;12.75;9.95;;;;;;;;;;5060613;28;20624;-73
2022/08/26 00:12:49;;;;;;;14.48;10.30;;;;;;;;;;5062480;28;20213;-72
2022/08/26 00:15:18;;;;;;;12.85;10.07;;;;;;;;;;5079111;28;20689;-73
2022/08/26 00:17:46;;;;;;;10.27;9.15;;;;;;;;;;5050539;28;20252;-73
2022/08/26 00:20:18;;;;;;;13.90;9.52;;;;;;;;;;5064179;28;20221;-73
2022/08/26 00:22:43;;;;;;;13.50;10.73;;;;;;;;;;5059168;28;20249;-73
2022/08/26 00:25:12;;;;;;;11.20;10.02;;;;;;;;;;5075309;28;20232;-73
2022/08/26 00:27:38;;;;;;;11.95;10.35;;;;;;;;;;5075605;28;20221;-74
2022/08/26 00:30:06;;;;;;;11.13;9.82;;;;;;;;;;5050378;28;20249;-73
2022/08/26 00:32:32;;;;;;;12.30;10.00;;;;;;;;;;5050057;28;20224;-73
2022/08/26 00:34:57;;;;;;;13.75;10.00;;;;;;;;;;5064646;28;20209;-73
2022/08/26 00:37:28;;;;;;;13.23;10.07;;;;;;;;;;5059571;28;20218;-73
2022/08/26 00:39:56;;;;;;;11.43;10.20;;;;;;;;;;5059168;28;20233;-73
2022/08/26 00:42:26;;;;;;;12.73;9.73;;;;;;;;;;5086106;28;20760;-73
2022/08/26 00:44:52;;;;;;;13.95;10.10;;;;;;;;;;5046651;28;20225;-73
2022/08/26 00:47:50;;;;;;;14.27;10.00;;;;;;;;;;5060507;28;20225;-73
2022/08/26 00:50:21;;;;;;;11.00;9.77;;;;;;;;;;5066556;28;20225;-73
2022/08/26 00:52:49;;;;;;;13.70;10.02;;;;;;;;;;5044676;28;20968;-73
2022/08/26 00:55:18;;;;;;;11.63;10.43;;;;;;;;;;5032439;28;20217;-74
2022/08/26 00:57:44;;;;;;;15.52;10.93;;;;;;;;;;5052034;28;20233;-73
2022/08/26 01:00:15;;;;;;;11.73;10.35;;;;;;;;;;5059600;28;20213;-73
2022/08/26 01:02:41;;;;;;;12.23;10.82;;;;;;;;;;5057229;28;20225;-73
2022/08/26 01:05:10;;;;;;;16.55;10.68;;;;;;;;;;5059201;28;20278;-72
2022/08/26 01:07:36;;;;;;;11.50;10.30;;;;;;;;;;5058419;28;20809;-72
2022/08/26 01:10:06;;;;;;;13.88;10.90;;;;;;;;;;5045358;28;20217;-73
2022/08/26 01:12:37;;;;;;;11.95;10.18;;;;;;;;;;5068630;28;20625;-72
2022/08/26 01:15:03;;;;;;;13.63;10.57;;;;;;;;;;5075831;28;20906;-73
2022/08/26 01:17:28;;;;;;;15.68;11.43;;;;;;;;;;5054212;28;20242;-74
2022/08/26 01:20:10;;;;;;;12.20;10.77;;;;;;;;;;5045436;28;20222;-73
2022/08/26 01:22:53;;;;;;;13.68;10.52;;;;;;;;;;5067885;28;20285;-72
2022/08/26 01:25:19;;;;;;;13.35;10.88;;;;;;;;;;5061987;28;20298;-72
2022/08/26 01:27:45;;;;;;;13.90;10.90;;;;;;;;;;5060179;28;20675;-72
2022/08/26 01:30:15;;;;;;;15.68;10.75;;;;;;;;;;5078424;28;20267;-74
2022/08/26 01:32:41;;;;;;;12.45;10.63;;;;;;;;;;5082322;28;20319;-72
2022/08/26 01:35:09;;;;;;;13.05;10.73;;;;;;;;;;5056335;28;20281;-73
2022/08/26 01:37:35;;;;;;;13.65;10.45;;;;;;;;;;5070700;28;21028;-72
2022/08/26 01:40:05;;;;;;;13.43;11.32;;;;;;;;;;5057332;28;20684;-74
2022/08/26 01:42:33;;;;;;;13.75;10.52;;;;;;;;;;5068133;28;20222;-75
2022/08/26 01:45:05;;;;;;;15.82;10.43;;;;;;;;;;5074388;28;20230;-74
2022/08/26 01:47:30;;;;;;;14.38;10.63;;;;;;;;;;5068761;28;20838;-74
2022/08/26 01:50:00;;;;;;;15.65;10.57;;;;;;;;;;5042869;28;20764;-74
2022/08/26 01:52:30;;;;;;;11.93;10.75;;;;;;;;;;5028012;28;20217;-73
2022/08/26 01:54:56;;;;;;;13.25;11.00;;;;;;;;;;5063605;28;20382;-74
2022/08/26 01:57:24;;;;;;;13.73;10.43;;;;;;;;;;5059015;28;20748;-72
2022/08/26 01:59:56;;;;;;;11.80;10.27;;;;;;;;;;5069463;28;20237;-75
2022/08/26 02:02:21;;;;;;;14.00;10.98;;;;;;;;;;5062656;28;20218;-74
2022/08/26 02:04:53;;;;;;;15.98;11.32;;;;;;;;;;5056742;28;20244;-70
2022/08/26 02:07:19;;;;;;;17.85;11.30;;;;;;;;;;5073017;28;20260;-74
2022/08/26 02:09:45;;;;;;;12.68;11.27;;;;;;;;;;5060871;27;20218;-75
2022/08/26 02:12:13;;;;;;;11.60;10.15;;;;;;;;;;5062007;28;20766;-73
2022/08/26 02:14:45;;;;;;;11.65;10.38;;;;;;;;;;5064918;28;20283;-73
2022/08/26 02:17:14;;;;;;;12.68;10.85;;;;;;;;;;5069252;28;20222;-73
2022/08/26 02:19:47;;;;;;;14.63;10.40;;;;;;;;;;5034868;28;20229;-72
2022/08/26 02:22:20;;;;;;;13.55;10.45;;;;;;;;;;5061115;28;20305;-71
2022/08/26 02:24:50;;;;;;;20.13;11.45;;;;;;;;;;5060100;28;20253;-71
2022/08/26 02:27:17;;;;;;;11.95;10.73;;;;;;;;;;5067750;27;20226;-72
2022/08/26 02:29:44;;;;;;;14.75;10.90;;;;;;;;;;5061820;28;20590;-73
2022/08/26 02:32:14;;;;;;;11.63;10.15;;;;;;;;;;5082838;28;20237;-74
2022/08/26 02:34:41;;;;;;;14.63;10.38;;;;;;;;;;5076067;28;20321;-73
2022/08/26 02:37:08;;;;;;;12.68;10.60;;;;;;;;;;5064427;28;20267;-73
2022/08/26 02:39:34;;;;;;;14.25;10.75;;;;;;;;;;5049674;28;20328;-73
2022/08/26 02:41:59;;;;;;;14.55;10.80;;;;;;;;;;5061372;28;20233;-73
2022/08/26 02:44:25;;;;;;;12.23;10.95;;;;;;;;;;5069691;28;20631;-73
2022/08/26 02:46:51;;;;;;;13.98;10.90;;;;;;;;;;5061777;28;20243;-73
2022/08/26 02:49:18;;;;;;;14.00;10.80;;;;;;;;;;5069977;28;20698;-73
2022/08/26 02:51:48;;;;;;;12.13;10.82;;;;;;;;;;5070848;28;20308;-73
2022/08/26 02:54:15;;;;;;;14.32;10.90;;;;;;;;;;5050155;28;20229;-73
2022/08/26 02:56:45;;;;;;;12.07;10.25;;;;;;;;;;5087609;28;20290;-74
2022/08/26 02:59:13;;;;;;;13.80;10.73;;;;;;;;;;5082467;28;20214;-74
2022/08/26 03:01:39;;;;;;;12.63;10.43;;;;;;;;;;5037400;28;20229;-74
2022/08/26 03:04:05;;;;;;;12.45;10.48;;;;;;;;;;5065370;28;20232;-74
2022/08/26 03:06:31;;;;;;;13.95;10.63;;;;;;;;;;5065526;28;20249;-74
2022/08/26 03:08:57;;;;;;;16.23;10.95;;;;;;;;;;5043368;28;20214;-72
2022/08/26 03:11:25;;;;;;;12.23;10.52;;;;;;;;;;5062483;28;20722;-74
2022/08/26 03:13:53;;;;;;;13.63;10.85;;;;;;;;;;5052811;28;20347;-74
2022/08/26 03:16:21;;;;;;;11.88;10.73;;;;;;;;;;5078374;28;20225;-73
2022/08/26 03:18:47;;;;;;;13.80;10.48;;;;;;;;;;5045962;28;20240;-74
2022/08/26 03:21:14;;;;;;;12.32;10.38;;;;;;;;;;5076258;28;20226;-74
2022/08/26 03:23:44;;;;;;;14.13;10.90;;;;;;;;;;5080337;28;20563;-72
2022/08/26 03:26:15;;;;;;;12.13;10.63;;;;;;;;;;5051593;28;20217;-74
2022/08/26 03:30:38;;;;;;;16.33;11.05;;;;;;;;;;5062387;28;20263;-73
2022/08/26 03:31:31;;;;;;;11.13;10.00;;;;;;;;;;5062550;28;20914;-74
2022/08/26 03:33:57;;;;;;;12.68;10.23;;;;;;;;;;5046902;28;20240;-73
2022/08/26 03:36:22;;;;;;;13.88;10.13;;;;;;;;;;5062230;28;20226;-73
2022/08/26 03:38:53;;;;;;;15.30;10.88;;;;;;;;;;5029490;28;20221;-73
2022/08/26 03:41:23;;;;;;;13.88;10.57;;;;;;;;;;5027326;28;21048;-73
2022/08/26 03:43:53;;;;;;;12.85;10.32;;;;;;;;;;5057457;28;20711;-73
2022/08/26 03:46:21;;;;;;;11.68;10.50;;;;;;;;;;5076472;28;20217;-73
2022/08/26 03:48:47;;;;;;;11.10;10.00;;;;;;;;;;5059990;28;20227;-73
2022/08/26 03:51:17;;;;;;;13.20;10.18;;;;;;;;;;5057991;28;20229;-73
2022/08/26 03:53:42;;;;;;;13.48;10.27;;;;;;;;;;5087179;28;20304;-73
2022/08/26 03:56:08;;;;;;;12.35;10.98;;;;;;;;;;5045196;28;20221;-72
2022/08/26 03:58:36;;;;;;;11.77;10.57;;;;;;;;;;5053178;28;20235;-72
2022/08/26 04:01:02;;;;;;;14.38;10.35;;;;;;;;;;5058727;28;20221;-72
2022/08/26 04:06:15;;;;;;;12.90;10.43;;;;;;;;;;5073494;28;20222;-73
2022/08/26 04:08:40;;;;;;;13.38;10.65;;;;;;;;;;5070574;28;20221;-74
2022/08/26 04:11:06;;;;;;;12.98;10.50;;;;;;;;;;5061420;28;20278;-73
2022/08/26 04:13:32;;;;;;;11.90;10.75;;;;;;;;;;5053111;28;20228;-72
2022/08/26 04:15:58;;;;;;;15.15;11.35;;;;;;;;;;5048207;28;20232;-73
2022/08/26 04:18:25;;;;;;;14.60;11.23;;;;;;;;;;5052304;28;20286;-74
2022/08/26 04:20:50;;;;;;;12.52;11.02;;;;;;;;;;5081859;28;20355;-72
2022/08/26 04:23:18;;;;;;;13.57;10.45;;;;;;;;;;5064570;28;20222;-71
2022/08/26 04:25:43;;;;;;;12.10;10.05;;;;;;;;;;5037103;28;20260;-73
2022/08/26 04:28:09;;;;;;;12.75;10.00;;;;;;;;;;5079281;28;20224;-72
2022/08/26 04:30:40;;;;;;;12.52;9.48;;;;;;;;;;5050131;28;20218;-73
2022/08/26 04:33:08;;;;;;;13.85;10.60;;;;;;;;;;5096410;28;20221;-72
2022/08/26 04:35:35;;;;;;;13.43;10.25;;;;;;;;;;5056528;28;20225;-72
2022/08/26 04:38:03;;;;;;;12.43;10.07;;;;;;;;;;5057517;28;20327;-72
2022/08/26 04:40:29;;;;;;;13.15;10.23;;;;;;;;;;5061080;28;20217;-73
2022/08/26 04:42:55;;;;;;;12.25;10.30;;;;;;;;;;5065743;28;20228;-74
2022/08/26 04:45:21;;;;;;;11.77;9.57;;;;;;;;;;5061344;28;20214;-73
2022/08/26 04:47:49;;;;;;;17.55;10.13;;;;;;;;;;5047949;28;20228;-74
2022/08/26 04:50:14;;;;;;;16.23;9.57;;;;;;;;;;5044125;28;20218;-71
2022/08/26 04:52:43;;;;;;;14.57;10.13;;;;;;;;;;5065562;28;20221;-73
2022/08/26 04:55:09;;;;;;;10.40;9.32;;;;;;;;;;5055441;28;20221;-73
2022/08/26 04:57:35;;;;;;;11.93;9.90;;;;;;;;;;5047546;28;20217;-73
2022/08/26 05:00:05;;;;;;;13.32;10.10;;;;;;;;;;5046158;28;20221;-74
2022/08/26 05:02:30;;;;;;;12.07;9.20;;;;;;;;;;5054378;28;20218;-73
2022/08/26 05:04:57;;;;;;;14.20;9.90;;;;;;;;;;5058779;28;20277;-73
2022/08/26 05:07:25;;;;;;;11.63;9.40;;;;;;;;;;5082140;28;20226;-72
2022/08/26 05:09:51;;;;;;;10.57;9.48;;;;;;;;;;5045939;28;20221;-74
2022/08/26 05:12:20;;;;;;;11.32;8.93;;;;;;;;;;5048729;28;20244;-73
2022/08/26 05:14:45;;;;;;;13.13;9.07;;;;;;;;;;5063430;28;20226;-72
2022/08/26 05:17:13;;;;;;;14.80;9.65;;;;;;;;;;5043916;28;20267;-73
2022/08/26 05:19:41;;;;;;;13.70;9.00;;;;;;;;;;5076571;28;20221;-73
2022/08/26 05:22:06;;;;;;;11.18;9.43;;;;;;;;;;5077121;28;20304;-73
2022/08/26 05:24:48;;;;;;;14.93;8.82;;;;;;;;;;5080369;28;20637;-73
2022/08/26 05:27:42;;;;;;;10.48;8.57;;;;;;;;;;5062112;28;20225;-73
2022/08/26 05:30:08;;;;;;;10.45;8.45;;;;;;;;;;5083881;28;20694;-73
2022/08/26 05:32:34;;;;;;;11.77;8.82;;;;;;;;;;5074741;28;20217;-73
2022/08/26 05:35:01;;;;;;;11.38;8.68;;;;;;;;;;5053471;28;20233;-72
2022/08/26 05:37:32;;;;;;;11.77;8.85;;;;;;;;;;5048399;28;20228;-74
2022/08/26 05:39:57;;;;;;;12.82;8.55;;;;;;;;;;5084489;28;20217;-73
2022/08/26 05:42:25;;;;;;;12.65;8.77;;;;;;;;;;5064667;28;20248;-71
2022/08/26 05:44:52;;;;;;;9.88;8.07;;;;;;;;;;5079220;28;20324;-73
2022/08/26 05:47:17;;;;;;;10.82;8.60;;;;;;;;;;5047574;28;20298;-72
2022/08/26 05:49:43;;;;;;;9.93;8.20;;;;;;;;;;5053360;28;20221;-72
2022/08/26 05:52:11;;;;;;;9.07;8.18;;;;;;;;;;5094672;28;20221;-73
2022/08/26 05:54:40;;;;;;;9.38;8.43;;;;;;;;;;5034621;28;20721;-72
2022/08/26 05:57:05;;;;;;;12.45;8.15;;;;;;;;;;5079699;28;20217;-73
2022/08/26 05:59:33;;;;;;;10.95;8.40;;;;;;;;;;5084670;28;20221;-73
2022/08/26 06:02:01;;;;;;;13.38;8.73;;;;;;;;;;5051935;28;20255;-74
2022/08/26 06:04:26;;;;;;;10.75;8.18;;;;;;;;;;5049093;28;20234;-74
2022/08/26 06:06:52;;;;;;;10.73;8.50;;;;;;;;;;5083732;28;20218;-73
2022/08/26 06:09:17;;;;;;;11.98;8.57;;;;;;;;;;5084357;28;20233;-74
2022/08/26 06:11:43;;;;;;;9.50;8.43;;;;;;;;;;5069002;28;20715;-73
2022/08/26 06:14:13;;;;;;;10.00;8.32;;;;;;;;;;5047426;28;20317;-72
2022/08/26 06:16:44;;;;;;;10.55;8.63;;;;;;;;;;5049416;28;20256;-73
2022/08/26 06:19:10;;;;;;;11.77;8.90;;;;;;;;;;5052374;28;20756;-72
2022/08/26 06:21:40;;;;;;;12.98;9.23;;;;;;;;;;5056256;28;20308;-73
2022/08/26 06:26:59;;;;;;;12.90;8.23;;;;;;;;;;5056502;27;20247;-73
2022/08/26 06:29:28;;;;;;;15.85;8.52;;;;;;;;;;5049104;28;20423;-72
2022/08/26 06:31:54;;;;;;;11.18;8.60;;;;;;;;;;5066452;28;20222;-72
2022/08/26 06:34:19;;;;;;;9.77;8.45;;;;;;;;;;5072274;28;20691;-73
2022/08/26 06:36:46;;;;;;;9.10;8.18;;;;;;;;;;5049845;28;20224;-72
2022/08/26 06:39:13;;;;;;;12.68;8.63;;;;;;;;;;5052938;28;20678;-71
2022/08/26 06:41:39;;;;;;;10.55;8.30;;;;;;;;;;5034872;28;20588;-73
2022/08/26 06:44:05;;;;;;;8.90;8.00;;;;;;;;;;5048127;28;20225;-72
2022/08/26 06:46:31;;;;;;;13.48;8.50;;;;;;;;;;5046624;28;20245;-72
2022/08/26 06:48:59;;;;;;;8.70;7.80;;;;;;;;;;5066414;28;20233;-72
2022/08/26 06:51:27;;;;;;;10.02;7.55;;;;;;;;;;5052349;28;20711;-72
2022/08/26 06:53:56;;;;;;;10.75;7.85;;;;;;;;;;5079159;28;20236;-72
2022/08/26 06:56:23;;;;;;;9.27;7.93;;;;;;;;;;5054733;28;20225;-72
2022/08/26 06:58:49;;;;;;;10.15;8.18;;;;;;;;;;5042492;28;20222;-73
2022/08/26 07:01:27;;;;;;;9.68;7.65;;;;;;;;;;5073715;28;20243;-74
2022/08/26 07:03:56;;;;;;;11.52;8.05;;;;;;;;;;5072440;28;20589;-73
2022/08/26 07:06:24;;;;;;;13.10;8.10;;;;;;;;;;5037409;28;20968;-73
2022/08/26 07:09:00;;;;;;;12.57;7.55;;;;;;;;;;5062580;28;20226;-72
2022/08/26 07:11:26;;;;;;;9.52;7.38;;;;;;;;;;5044396;28;20217;-72
2022/08/26 07:13:52;;;;;;;13.30;8.10;;;;;;;;;;5061640;28;20225;-72
2022/08/26 07:16:18;;;;;;;14.07;7.13;;;;;;;;;;5029217;28;20222;-72
2022/08/26 07:18:43;;;;;;;9.85;8.07;;;;;;;;;;5031111;28;20788;-72
2022/08/26 07:21:16;;;;;;;9.75;7.38;;;;;;;;;;5050334;28;20227;-74
2022/08/26 07:23:41;;;;;;;10.27;7.53;;;;;;;;;;5048920;28;20237;-73
2022/08/26 07:26:15;;;;;;;12.10;7.95;;;;;;;;;;5050265;28;20822;-73
2022/08/26 07:28:59;;;;;;;15.77;7.65;;;;;;;;;;5074396;28;20799;-76
2022/08/26 07:31:56;;;;;;;13.80;8.05;;;;;;;;;;5063336;28;20244;-71
2022/08/26 07:34:24;;;;;;;12.82;8.05;;;;;;;;;;5054740;28;20283;-71
2022/08/26 07:37:00;;;;;;;9.55;7.85;;;;;;;;;;5053395;28;20221;-70
2022/08/26 07:39:26;;;;;;;10.27;7.80;;;;;;;;;;5051420;28;20699;-72
2022/08/26 07:41:52;;;;;;;12.48;8.18;;;;;;;;;;5049450;28;20704;-71
2022/08/26 07:44:20;;;;;;;11.48;7.30;;;;;;;;;;5073259;28;20226;-72
2022/08/26 07:46:46;;;;;;;10.82;7.78;;;;;;;;;;5062355;28;20233;-70
2022/08/26 07:49:11;;;;;;;13.13;7.80;;;;;;;;;;5063256;28;20711;-71
2022/08/26 07:51:37;;;;;;;13.00;7.47;;;;;;;;;;5062484;28;20213;-72
2022/08/26 07:54:03;;;;;;;11.50;8.00;;;;;;;;;;5058209;28;20218;-72
2022/08/26 07:56:29;;;;;;;9.93;7.72;;;;;;;;;;5043458;28;20229;-72
2022/08/26 07:58:57;;;;;;;11.02;7.65;;;;;;;;;;5071252;28;20225;-71
2022/08/26 08:01:23;;;;;;;11.38;7.53;;;;;;;;;;5045136;28;20314;-71
2022/08/26 08:03:50;;;;;;;11.25;7.05;;;;;;;;;;5060090;28;20214;-72
2022/08/26 08:06:17;;;;;;;9.18;7.95;;;;;;;;;;5070668;28;20265;-71
2022/08/26 08:08:43;;;;;;;14.90;7.93;;;;;;;;;;5060746;28;20228;-73
2022/08/26 08:11:10;;;;;;;9.30;7.22;;;;;;;;;;5046662;28;20730;-72
2022/08/26 08:13:36;;;;;;;15.85;8.10;;;;;;;;;;5062361;28;20800;-71
2022/08/26 08:16:02;;;;;;;11.10;7.63;;;;;;;;;;5030422;28;20210;-71
2022/08/26 08:18:28;;;;;;;11.25;7.90;;;;;;;;;;5046063;28;20647;-72
2022/08/26 08:20:56;;;;;;;12.15;8.15;;;;;;;;;;5035781;28;20209;-71
2022/08/26 08:23:22;;;;;;;10.80;7.82;;;;;;;;;;5027544;28;20292;-72
2022/08/26 08:25:48;;;;;;;11.18;8.18;;;;;;;;;;5072575;27;20234;-72
2022/08/26 08:28:14;;;;;;;12.35;8.25;;;;;;;;;;5064204;28;20218;-71
2022/08/26 08:30:40;;;;;;;16.55;7.90;;;;;;;;;;5048732;28;20294;-72
2022/08/26 08:33:06;;;;;;;10.95;7.82;;;;;;;;;;5043396;28;20730;-70
2022/08/26 08:35:33;;;;;;;10.93;8.05;;;;;;;;;;5049114;28;20266;-73
2022/08/26 08:38:01;;;;;;;10.10;8.15;;;;;;;;;;5051897;28;20236;-71
2022/08/26 08:40:27;;;;;;;9.15;8.10;;;;;;;;;;5057410;28;20218;-71
2022/08/26 08:43:03;;;;;;;12.00;7.47;;;;;;;;;;5036727;28;20214;-71
2022/08/26 08:45:59;;;;;;;13.02;7.55;;;;;;;;;;5068218;28;20252;-71
2022/08/26 08:48:34;;;;;;;11.52;8.18;;;;;;;;;;5039183;28;20216;-72
2022/08/26 08:51:24;;;;;;;11.82;7.80;;;;;;;;;;5053143;28;20217;-72
2022/08/26 08:53:50;;;;;;;12.02;8.02;;;;;;;;;;5080274;28;20331;-71
2022/08/26 08:56:27;;;;;;;14.68;8.32;;;;;;;;;;5046558;28;20201;-71
2022/08/26 08:58:58;;;;;;;11.30;8.55;;;;;;;;;;5053863;28;20216;-72
2022/08/26 09:01:41;;;;;;;12.50;8.65;;;;;;;;;;5065252;28;20723;-71
2022/08/26 09:04:34;;;;;;;11.18;8.60;;;;;;;;;;5046257;28;20314;-70
2022/08/26 09:07:00;;;;;;;10.85;8.45;;;;;;;;;;5067166;28;20218;-72
2022/08/26 09:09:33;;;;;;;10.93;8.23;;;;;;;;;;5052506;28;20224;-73
2022/08/26 09:12:00;;;;;;;14.25;8.50;;;;;;;;;;5054232;28;20221;-73
2022/08/26 09:14:28;;;;;;;13.25;8.35;;;;;;;;;;5063118;28;20232;-73
2022/08/26 09:17:08;;;;;;;13.57;8.55;;;;;;;;;;5057197;28;20305;-73
2022/08/26 09:20:00;;;;;;;9.93;8.40;;;;;;;;;;5045618;28;20220;-73
2022/08/26 09:22:28;;;;;;;15.38;9.02;;;;;;;;;;5068162;28;20266;-71
2022/08/26 09:24:57;;;;;;;13.90;9.02;;;;;;;;;;5040662;23;20235;-87
2022/08/26 09:27:51;;;;;;;12.85;8.93;;;;;;;;;;5023828;28;20228;-86
2022/08/26 09:30:36;;;;;;;15.18;8.95;;;;;;;;;;5018991;28;20218;-87
2022/08/26 09:36:52;;;;;;;13.90;8.73;;;;;;;;;;5042327;28;20227;-87
2022/08/26 09:39:26;;;;;;;12.55;8.18;;;;;;;;;;5008229;28;20379;-87
2022/08/26 09:42:09;;;;;;;12.43;7.78;;;;;;;;;;5044905;28;20224;-87
2022/08/26 09:45:04;;;;;;;15.00;8.82;;;;;;;;;;5028927;28;20227;-85
2022/08/26 09:47:38;;;;;;;12.40;8.60;;;;;;;;;;4994948;28;20467;-86
2022/08/26 09:50:29;;;;;;;15.88;8.02;;;;;;;;;;5005144;28;20707;-91
2022/08/26 09:53:10;;;;;;;10.82;7.78;;;;;;;;;;5020581;28;20219;-89
2022/08/26 09:55:41;;;;;;;12.43;7.88;;;;;;;;;;5027191;28;20269;-86
2022/08/26 09:58:32;;;;;;;13.40;8.35;;;;;;;;;;5009600;28;20227;-84
2022/08/26 10:04:53;;;;;;;16.33;7.68;;;;;;;;;;5039131;28;20242;-86
2022/08/26 10:07:49;;;;;;;16.35;7.38;;;;;;;;;;5021898;28;20234;-84
2022/08/26 10:10:20;;;;;;;15.68;7.60;;;;;;;;;;5011593;28;20224;-86
2022/08/26 10:13:11;;;;;;;13.45;7.28;;;;;;;;;;5007100;28;20216;-84
2022/08/26 10:15:45;;;;;;;13.50;7.63;;;;;;;;;;4992206;28;20234;-85
2022/08/26 10:18:23;;;;;;;12.68;7.07;;;;;;;;;;4988709;28;20224;-86
2022/08/26 10:27:45;;;;;;;10.30;6.53;;;;;;;;;;5056222;28;20227;-73
2022/08/26 10:30:15;;;;;;;15.82;6.53;;;;;;;;;;5057657;28;20276;-74
2022/08/26 10:32:44;;;;;;;16.77;7.22;;;;;;;;;;5055916;28;20223;-73
2022/08/26 10:35:12;;;;;;;12.63;6.40;;;;;;;;;;5058172;28;20227;-73
2022/08/26 10:37:40;;;;;;;13.68;6.95;;;;;;;;;;5073385;28;20689;-74
2022/08/26 10:40:16;;;;;;;17.48;6.78;;;;;;;;;;5072721;28;20207;-73
2022/08/26 10:43:03;;;;;;;13.23;6.53;;;;;;;;;;5073382;28;20223;-74
2022/08/26 10:45:42;;;;;;;11.32;6.55;;;;;;;;;;5050223;28;20723;-73
2022/08/26 10:48:16;;;;;;;15.68;6.15;;;;;;;;;;5076823;28;20313;-73
2022/08/26 10:50:45;;;;;;;10.57;6.53;;;;;;;;;;5024640;28;20252;-72
2022/08/26 10:53:19;;;;;;;13.82;6.55;;;;;;;;;;5040675;28;20247;-72
2022/08/26 10:55:51;;;;;;;16.17;6.90;;;;;;;;;;5047775;28;20246;-73
2022/08/26 10:58:19;;;;;;;13.90;6.57;;;;;;;;;;5055904;28;20222;-73
2022/08/26 11:03:56;;;;;;;16.13;7.35;;;;;;;;;;5057315;28;20223;-73
2022/08/26 11:06:27;;;;;;;14.20;6.65;;;;;;;;;;5062488;28;20233;-73
2022/08/26 11:08:57;;;;;;;16.48;6.63;;;;;;;;;;5059104;28;20222;-73
2022/08/26 11:11:40;;;;;;;13.57;7.50;;;;;;;;;;5024517;27;20229;-73
2022/08/26 11:14:18;;;;;;;15.27;7.47;;;;;;;;;;5082421;28;20229;-73
2022/08/26 11:16:47;;;;;;;11.73;7.22;;;;;;;;;;5080405;28;20278;-72
2022/08/26 11:19:34;;;;;;;17.02;6.22;;;;;;;;;;5078157;28;20214;-73
2022/08/26 11:22:05;;;;;;;12.90;6.47;;;;;;;;;;5075534;28;20226;-73
2022/08/26 11:24:43;;;;;;;15.35;6.90;;;;;;;;;;5055501;28;20262;-73
2022/08/26 11:27:35;;;;;;;11.27;6.15;;;;;;;;;;5059260;28;20230;-72
2022/08/26 11:30:11;;;;;;;15.10;6.45;;;;;;;;;;5073549;28;20221;-72
2022/08/26 11:32:40;;;;;;;15.50;7.05;;;;;;;;;;5055322;28;21022;-75
2022/08/26 11:35:17;;;;;;;10.98;6.50;;;;;;;;;;5062646;28;20225;-73
2022/08/26 11:37:56;;;;;;;21.10;7.82;;;;;;;;;;5055340;28;20226;-72
2022/08/26 11:40:29;;;;;;;14.25;7.10;;;;;;;;;;5034531;28;20245;-72
2022/08/26 11:42:59;;;;;;;11.02;6.70;;;;;;;;;;5049288;28;20223;-72
2022/08/26 11:45:38;;;;;;;17.35;6.82;;;;;;;;;;5061178;28;20787;-73
2022/08/26 11:48:42;;;;;;;28.13;19.90;;;;;;;;;;5069353;28;20229;-73
2022/08/26 11:51:19;;;;;;;17.65;8.82;;;;;;;;;;5033888;28;21134;-74
2022/08/26 11:53:45;;;;;;;13.60;6.20;;;;;;;;;;5064153;28;20230;-74
2022/08/26 11:56:23;;;;;;;12.13;6.15;;;;;;;;;;5056307;28;20214;-74
2022/08/26 11:58:48;;;;;;;9.65;5.85;;;;;;;;;;5034908;28;20889;-75
2022/08/26 12:01:25;;;;;;;14.65;6.40;;;;;;;;;;5047701;28;20276;-74
2022/08/26 12:03:50;;;;;;;12.00;6.15;;;;;;;;;;5051362;28;20689;-72
2022/08/26 12:06:26;;;;;;;8.88;6.13;;;;;;;;;;5059358;28;20213;-72
2022/08/26 12:08:52;;;;;;;8.88;6.57;;;;;;;;;;5061806;28;20225;-72
2022/08/26 12:11:28;;;;;;;10.50;6.20;;;;;;;;;;5023573;28;20217;-73
2022/08/26 12:13:54;;;;;;;12.68;6.20;;;;;;;;;;5060183;28;20235;-74
2022/08/26 12:16:22;;;;;;;8.18;6.38;;;;;;;;;;5074381;28;20214;-72
2022/08/26 12:18:48;;;;;;;9.52;6.30;;;;;;;;;;5044066;28;20287;-72
2022/08/26 12:21:20;;;;;;;13.77;8.60;;;;;;;;;;5045860;28;20215;-72
2022/08/26 12:23:48;;;;;;;12.20;6.70;;;;;;;;;;5047265;28;20273;-73
2022/08/26 12:26:29;;;;;;;10.65;6.35;;;;;;;;;;5023639;28;20225;-70
2022/08/26 12:29:04;;;;;;;12.60;6.53;;;;;;;;;;5070308;28;20218;-69
2022/08/26 12:31:33;;;;;;;11.38;6.85;;;;;;;;;;5073001;28;20296;-70
2022/08/26 12:33:59;;;;;;;10.70;6.65;;;;;;;;;;5090298;28;20611;-71
2022/08/26 12:36:30;;;;;;;12.68;7.28;;;;;;;;;;5027233;28;20223;-71
2022/08/26 12:38:56;;;;;;;9.80;6.55;;;;;;;;;;5051712;28;20219;-72
2022/08/26 12:42:00;;;;;;;11.00;6.60;;;;;;;;;;5055756;28;20233;-72
2022/08/26 12:44:48;;;;;;;9.07;6.53;;;;;;;;;;5005904;28;20224;-71
2022/08/26 12:47:26;;;;;;;9.45;6.50;;;;;;;;;;5031641;28;20376;-72
2022/08/26 12:50:10;;;;;;;10.52;6.47;;;;;;;;;;5043090;28;20226;-70
2022/08/26 12:53:08;;;;;;;11.77;6.63;;;;;;;;;;5063258;28;20704;-72
2022/08/26 12:55:34;;;;;;;7.57;6.53;;;;;;;;;;5068178;28;20222;-73
2022/08/26 12:58:21;;;;;;;13.15;7.28;;;;;;;;;;5060040;28;20276;-73
2022/08/26 13:00:48;;;;;;;11.13;6.78;;;;;;;;;;5069649;28;20256;-73
2022/08/26 13:03:32;;;;;;;10.00;6.75;;;;;;;;;;5034264;28;20215;-72
2022/08/26 13:06:20;;;;;;;14.40;6.88;;;;;;;;;;5070899;28;20280;-72
2022/08/26 13:09:08;;;;;;;14.35;6.43;;;;;;;;;;5047186;28;20317;-70
2022/08/26 13:11:44;;;;;;;15.77;6.93;;;;;;;;;;5046927;28;20229;-73
2022/08/26 13:14:13;;;;;;;9.68;7.38;;;;;;;;;;5056000;28;20234;-72
2022/08/26 13:16:40;;;;;;;11.50;6.55;;;;;;;;;;5045681;28;20230;-74
2022/08/26 13:19:10;;;;;;;8.63;6.40;;;;;;;;;;5050361;28;20250;-71
2022/08/26 13:21:52;;;;;;;11.15;6.60;;;;;;;;;;5053626;28;20225;-72
2022/08/26 13:24:26;;;;;;;13.15;7.93;;;;;;;;;;5063566;28;20225;-72
2022/08/26 13:26:53;;;;;;;9.10;6.85;;;;;;;;;;5065303;28;20214;-71
2022/08/26 13:29:19;;;;;;;8.10;6.90;;;;;;;;;;5073142;28;20211;-72
2022/08/26 13:31:45;;;;;;;13.90;7.03;;;;;;;;;;5064581;28;21229;-71
2022/08/26 13:34:14;;;;;;;10.80;6.90;;;;;;;;;;5056818;28;20222;-71
2022/08/26 13:36:43;;;;;;;11.65;6.85;;;;;;;;;;5035396;28;20279;-73
2022/08/26 13:39:12;;;;;;;10.93;6.65;;;;;;;;;;5069609;28;20242;-72
2022/08/26 13:41:41;;;;;;;12.73;6.65;;;;;;;;;;5070123;28;20254;-72
2022/08/26 13:44:09;;;;;;;14.13;6.88;;;;;;;;;;5028348;28;20231;-74
2022/08/26 13:46:35;;;;;;;13.15;6.63;;;;;;;;;;5019882;28;20870;-73
2022/08/26 13:49:01;;;;;;;17.83;6.47;;;;;;;;;;5023994;28;20306;-73
2022/08/26 13:51:33;;;;;;;10.57;6.55;;;;;;;;;;5035248;28;20253;-72
2022/08/26 13:54:03;;;;;;;10.85;6.55;;;;;;;;;;5027694;28;20229;-73
2022/08/26 13:56:29;;;;;;;11.95;6.53;;;;;;;;;;5071557;28;20223;-74
2022/08/26 13:58:56;;;;;;;14.40;6.50;;;;;;;;;;5062269;28;20234;-73
2022/08/26 14:01:22;;;;;;;11.98;6.40;;;;;;;;;;5045485;28;20214;-73
2022/08/26 14:03:47;;;;;;;10.93;6.57;;;;;;;;;;5030900;28;20376;-74
2022/08/26 14:06:13;;;;;;;13.43;6.82;;;;;;;;;;5030527;28;20637;-73
2022/08/26 14:08:42;;;;;;;11.55;6.07;;;;;;;;;;5069377;28;20226;-73
2022/08/26 14:11:08;;;;;;;12.23;5.65;;;;;;;;;;5049332;28;20516;-74
2022/08/26 14:13:36;;;;;;;10.80;5.72;;;;;;;;;;5048571;28;20218;-73
2022/08/26 14:16:07;;;;;;;10.68;6.05;;;;;;;;;;5062450;28;20830;-73
2022/08/26 14:18:34;;;;;;;11.63;6.03;;;;;;;;;;5047675;28;20218;-73
2022/08/26 14:21:00;;;;;;;12.98;5.60;;;;;;;;;;5064925;28;20218;-73
2022/08/26 14:23:26;;;;;;;8.00;5.28;;;;;;;;;;5044556;28;20287;-73
2022/08/26 14:25:51;;;;;;;13.65;5.70;;;;;;;;;;5045607;28;20221;-73
2022/08/26 14:28:17;;;;;;;12.25;5.60;;;;;;;;;;5046258;28;20253;-72
2022/08/26 14:30:52;;;;;;;15.25;6.45;;;;;;;;;;5034706;28;20280;-73
2022/08/26 14:33:18;;;;;;;10.57;5.35;;;;;;;;;;5076387;28;20275;-74
2022/08/26 14:35:44;;;;;;;9.50;5.40;;;;;;;;;;5044832;28;20218;-72
2022/08/26 14:38:10;;;;;;;9.10;6.03;;;;;;;;;;5079981;28;20226;-72
2022/08/26 14:40:39;;;;;;;7.68;5.70;;;;;;;;;;5077058;28;20716;-73
2022/08/26 14:43:08;;;;;;;8.70;5.90;;;;;;;;;;5044533;28;20249;-73
2022/08/26 14:45:34;;;;;;;10.13;5.45;;;;;;;;;;5047381;28;20214;-73
2022/08/26 14:48:00;;;;;;;9.73;5.53;;;;;;;;;;5030273;28;20258;-73
2022/08/26 14:50:29;;;;;;;14.63;5.78;;;;;;;;;;5067737;28;20325;-73
2022/08/26 14:55:42;;;;;;;7.68;4.55;;;;;;;;;;5070630;28;20622;-72
2022/08/26 14:58:11;;;;;;;8.95;4.30;;;;;;;;;;5024528;28;20252;-73
2022/08/26 15:00:37;;;;;;;9.52;4.72;;;;;;;;;;5030077;28;20219;-75
2022/08/26 15:03:03;;;;;;;7.10;4.53;;;;;;;;;;5039889;28;20227;-73
2022/08/26 15:05:29;;;;;;;10.57;4.68;;;;;;;;;;5045011;28;20227;-72
2022/08/26 15:07:57;;;;;;;9.00;4.50;;;;;;;;;;5058838;28;20210;-72
2022/08/26 15:10:22;;;;;;;8.48;4.50;;;;;;;;;;5080750;28;20307;-73
2022/08/26 15:12:48;;;;;;;8.82;4.57;;;;;;;;;;5044616;28;20226;-72